sensor_id;sensor_type;location;lat;lon;timestamp;pressure;altitude;pressure_sealevel;temperature;humidity
80566;BME280;69915;54.862;10.730;2023-08-24T00:02:09;101685.91;;;15.09;100.00
80566;BME280;69915;54.862;10.730;2023-08-24T00:04:36;101700.16;;;15.30;100.00
80566;BME280;69915;54.862;10.730;2023-08-24T00:07:02;101688.97;;;15.40;100.00
80566;BME280;69915;54.862;10.730;2023-08-24T00:09:28;101695.47;;;15.49;100.00
80566;BME280;69915;54.862;10.730;2023-08-24T00:11:54;101689.94;;;15.49;100.00
80566;BME280;69915;54.862;10.730;2023-08-24T00:14:20;101687.75;;;15.46;100.00
80566;BME280;69915;54.862;10.730;2023-08-24T00:16:46;101680.94;;;15.44;100.00
80566;BME280;69915;54.862;10.730;2023-08-24T00:19:12;101676.66;;;15.51;100.00
80566;BME280;69915;54.862;10.730;2023-08-24T00:21:38;101679.34;;;15.56;100.00
80566;BME280;69915;54.862;10.730;2023-08-24T00:24:04;101665.72;;;15.46;100.00
80566;BME280;69915;54.862;10.730;2023-08-24T00:26:30;101671.59;;;15.58;100.00
80566;BME280;69915;54.862;10.730;2023-08-24T00:28:55;101680.41;;;15.74;100.00
80566;BME280;69915;54.862;10.730;2023-08-24T00:31:21;101663.22;;;15.63;100.00
80566;BME280;69915;54.862;10.730;2023-08-24T00:33:46;101675.56;;;15.66;100.00
80566;BME280;69915;54.862;10.730;2023-08-24T00:36:12;101681.41;;;15.64;100.00
80566;BME280;69915;54.862;10.730;2023-08-24T00:38:37;101683.66;;;15.62;100.00
80566;BME280;69915;54.862;10.730;2023-08-24T00:41:03;101676.66;;;15.51;100.00
80566;BME280;69915;54.862;10.730;2023-08-24T00:43:29;101656.28;;;15.34;100.00
80566;BME280;69915;54.862;10.730;2023-08-24T00:45:56;101663.97;;;15.37;100.00
80566;BME280;69915;54.862;10.730;2023-08-24T00:48:24;101674.47;;;15.35;100.00
80566;BME280;69915;54.862;10.730;2023-08-24T00:50:52;101652.47;;;15.16;100.00
80566;BME280;69915;54.862;10.730;2023-08-24T00:53:19;101661.41;;;15.08;100.00
80566;BME280;69915;54.862;10.730;2023-08-24T00:55:46;101658.28;;;14.96;100.00
80566;BME280;69915;54.862;10.730;2023-08-24T00:58:12;101670.88;;;15.02;100.00
80566;BME280;69915;54.862;10.730;2023-08-24T01:00:38;101681.97;;;14.97;100.00
80566;BME280;69915;54.862;10.730;2023-08-24T01:03:04;101674.41;;;14.89;100.00
80566;BME280;69915;54.862;10.730;2023-08-24T01:05:30;101676.63;;;14.87;100.00
80566;BME280;69915;54.862;10.730;2023-08-24T01:07:55;101671.47;;;14.80;100.00
80566;BME280;69915;54.862;10.730;2023-08-24T01:10:21;101661.47;;;14.70;100.00
80566;BME280;69915;54.862;10.730;2023-08-24T01:12:58;101676.25;;;14.75;100.00
80566;BME280;69915;54.862;10.730;2023-08-24T01:15:48;101681.25;;;14.73;100.00
80566;BME280;69915;54.862;10.730;2023-08-24T01:18:18;101668.06;;;14.69;100.00
80566;BME280;69915;54.862;10.730;2023-08-24T01:20:47;101660.56;;;14.56;100.00
80566;BME280;69915;54.862;10.730;2023-08-24T01:25:54;101685.19;;;14.66;100.00
80566;BME280;69915;54.862;10.730;2023-08-24T01:28:22;101667.97;;;14.56;100.00
80566;BME280;69915;54.862;10.730;2023-08-24T01:30:48;101680.88;;;14.60;100.00
80566;BME280;69915;54.862;10.730;2023-08-24T01:33:14;101688.16;;;14.70;100.00
80566;BME280;69915;54.862;10.730;2023-08-24T01:35:40;101684.59;;;14.69;100.00
80566;BME280;69915;54.862;10.730;2023-08-24T01:38:07;101671.41;;;14.66;100.00
80566;BME280;69915;54.862;10.730;2023-08-24T01:40:49;101693.97;;;14.87;100.00
80566;BME280;69915;54.862;10.730;2023-08-24T01:43:20;101677.97;;;14.70;100.00
80566;BME280;69915;54.862;10.730;2023-08-24T01:45:47;101697.44;;;14.93;100.00
80566;BME280;69915;54.862;10.730;2023-08-24T01:48:14;101675.16;;;14.76;100.00
80566;BME280;69915;54.862;10.730;2023-08-24T01:50:41;101697.44;;;14.93;100.00
80566;BME280;69915;54.862;10.730;2023-08-24T01:53:07;101693.81;;;14.97;100.00
80566;BME280;69915;54.862;10.730;2023-08-24T01:55:32;101697.31;;;15.03;100.00
80566;BME280;69915;54.862;10.730;2023-08-24T01:57:58;101698.34;;;15.07;100.00
80566;BME280;69915;54.862;10.730;2023-08-24T02:00:23;101663.91;;;14.91;100.00
80566;BME280;69915;54.862;10.730;2023-08-24T02:02:49;101668.34;;;15.05;100.00
80566;BME280;69915;54.862;10.730;2023-08-24T02:05:14;101676.13;;;15.17;100.00
80566;BME280;69915;54.862;10.730;2023-08-24T02:07:40;101671.22;;;15.14;100.00
80566;BME280;69915;54.862;10.730;2023-08-24T02:10:06;101687.59;;;15.24;100.00
80566;BME280;69915;54.862;10.730;2023-08-24T02:12:32;101696.97;;;15.23;100.00
80566;BME280;69915;54.862;10.730;2023-08-24T02:14:57;101687.31;;;15.39;100.00
80566;BME280;69915;54.862;10.730;2023-08-24T02:17:23;101644.22;;;15.16;100.00
80566;BME280;69915;54.862;10.730;2023-08-24T02:19:49;101651.56;;;15.20;100.00
80566;BME280;69915;54.862;10.730;2023-08-24T02:22:14;101689.84;;;15.22;100.00
80566;BME280;69915;54.862;10.730;2023-08-24T02:24:40;101679.19;;;15.15;100.00
80566;BME280;69915;54.862;10.730;2023-08-24T02:27:05;101636.72;;;15.03;100.00
80566;BME280;69915;54.862;10.730;2023-08-24T02:29:31;101666.72;;;15.04;100.00
80566;BME280;69915;54.862;10.730;2023-08-24T02:31:56;101676.31;;;15.07;100.00
80566;BME280;69915;54.862;10.730;2023-08-24T02:34:21;101656.00;;;14.84;100.00
80566;BME280;69915;54.862;10.730;2023-08-24T02:36:47;101655.28;;;14.79;100.00
80566;BME280;69915;54.862;10.730;2023-08-24T02:39:12;101667.34;;;14.83;100.00
80566;BME280;69915;54.862;10.730;2023-08-24T02:41:38;101656.69;;;14.76;100.00
80566;BME280;69915;54.862;10.730;2023-08-24T02:44:04;101668.59;;;14.71;100.00
80566;BME280;69915;54.862;10.730;2023-08-24T02:46:29;101643.81;;;14.53;100.00
80566;BME280;69915;54.862;10.730;2023-08-24T02:48:55;101666.28;;;14.60;100.00
80566;BME280;69915;54.862;10.730;2023-08-24T02:51:23;101670.13;;;14.59;100.00
80566;BME280;69915;54.862;10.730;2023-08-24T02:53:49;101665.22;;;14.56;100.00
80566;BME280;69915;54.862;10.730;2023-08-24T02:56:15;101654.03;;;14.52;100.00
80566;BME280;69915;54.862;10.730;2023-08-24T02:58:41;101657.66;;;14.48;100.00
80566;BME280;69915;54.862;10.730;2023-08-24T03:01:07;101647.00;;;14.41;100.00
80566;BME280;69915;54.862;10.730;2023-08-24T03:03:36;101660.69;;;14.46;100.00
80566;BME280;69915;54.862;10.730;2023-08-24T03:06:06;101636.09;;;14.36;100.00
80566;BME280;69915;54.862;10.730;2023-08-24T03:08:33;101670.81;;;14.69;100.00
80566;BME280;69915;54.862;10.730;2023-08-24T03:11:00;101660.41;;;14.66;100.00
80566;BME280;69915;54.862;10.730;2023-08-24T03:13:26;101667.16;;;14.74;100.00
80566;BME280;69915;54.862;10.730;2023-08-24T03:15:52;101649.03;;;14.54;100.00
80566;BME280;69915;54.862;10.730;2023-08-24T03:18:18;101647.03;;;14.60;100.00
80566;BME280;69915;54.862;10.730;2023-08-24T03:20:44;101667.41;;;14.78;100.00
80566;BME280;69915;54.862;10.730;2023-08-24T03:23:10;101665.31;;;14.69;100.00
80566;BME280;69915;54.862;10.730;2023-08-24T03:25:37;101660.28;;;14.77;100.00
80566;BME280;69915;54.862;10.730;2023-08-24T03:28:04;101660.41;;;14.85;100.00
80566;BME280;69915;54.862;10.730;2023-08-24T03:30:29;101661.28;;;14.81;100.00
80566;BME280;69915;54.862;10.730;2023-08-24T03:32:55;101633.72;;;14.67;100.00
80566;BME280;69915;54.862;10.730;2023-08-24T03:35:21;101648.84;;;14.83;100.00
80566;BME280;69915;54.862;10.730;2023-08-24T03:37:46;101649.69;;;14.84;100.00
80566;BME280;69915;54.862;10.730;2023-08-24T03:40:12;101651.94;;;14.82;100.00
80566;BME280;69915;54.862;10.730;2023-08-24T03:42:38;101632.97;;;14.61;100.00
80566;BME280;69915;54.862;10.730;2023-08-24T03:45:04;101656.56;;;14.67;100.00
80566;BME280;69915;54.862;10.730;2023-08-24T03:47:29;101656.59;;;14.62;100.00
80566;BME280;69915;54.862;10.730;2023-08-24T03:49:55;101636.97;;;14.50;100.00
80566;BME280;69915;54.862;10.730;2023-08-24T03:52:20;101655.66;;;14.53;100.00
80566;BME280;69915;54.862;10.730;2023-08-24T03:54:46;101639.22;;;14.48;100.00
80566;BME280;69915;54.862;10.730;2023-08-24T03:57:12;101654.78;;;14.58;100.00
80566;BME280;69915;54.862;10.730;2023-08-24T03:59:37;101648.22;;;14.54;100.00
80566;BME280;69915;54.862;10.730;2023-08-24T04:02:03;101654.22;;;14.56;100.00
80566;BME280;69915;54.862;10.730;2023-08-24T04:04:30;101662.94;;;14.63;100.00
80566;BME280;69915;54.862;10.730;2023-08-24T04:06:55;101628.25;;;14.43;100.00
80566;BME280;69915;54.862;10.730;2023-08-24T04:09:21;101652.06;;;14.53;100.00
80566;BME280;69915;54.862;10.730;2023-08-24T04:11:47;101648.28;;;14.49;100.00
80566;BME280;69915;54.862;10.730;2023-08-24T04:14:12;101645.31;;;14.45;100.00
80566;BME280;69915;54.862;10.730;2023-08-24T04:16:39;101623.44;;;14.35;100.00
80566;BME280;69915;54.862;10.730;2023-08-24T04:19:04;101634.50;;;14.30;100.00
80566;BME280;69915;54.862;10.730;2023-08-24T04:21:30;101624.31;;;14.31;100.00
80566;BME280;69915;54.862;10.730;2023-08-24T04:23:55;101641.50;;;14.41;100.00
80566;BME280;69915;54.862;10.730;2023-08-24T04:26:21;101646.28;;;14.54;100.00
80566;BME280;69915;54.862;10.730;2023-08-24T04:28:46;101639.00;;;14.63;100.00
80566;BME280;69915;54.862;10.730;2023-08-24T04:31:12;101630.41;;;14.65;100.00
80566;BME280;69915;54.862;10.730;2023-08-24T04:33:37;101651.19;;;14.76;100.00
80566;BME280;69915;54.862;10.730;2023-08-24T04:36:03;101638.84;;;14.74;100.00
80566;BME280;69915;54.862;10.730;2023-08-24T04:38:28;101653.56;;;14.83;100.00
80566;BME280;69915;54.862;10.730;2023-08-24T04:40:55;101646.78;;;14.94;100.00
80566;BME280;69915;54.862;10.730;2023-08-24T04:43:22;101653.22;;;15.03;100.00
80566;BME280;69915;54.862;10.730;2023-08-24T04:45:49;101651.22;;;15.08;100.00
80566;BME280;69915;54.862;10.730;2023-08-24T04:48:16;101636.34;;;15.09;100.00
80566;BME280;69915;54.862;10.730;2023-08-24T04:50:43;101651.56;;;15.20;100.00
80566;BME280;69915;54.862;10.730;2023-08-24T04:53:09;101636.88;;;15.25;100.00
80566;BME280;69915;54.862;10.730;2023-08-24T04:55:34;101646.91;;;15.35;100.00
80566;BME280;69915;54.862;10.730;2023-08-24T04:58:00;101645.50;;;15.37;100.00
80566;BME280;69915;54.862;10.730;2023-08-24T05:00:26;101643.31;;;15.53;100.00
80566;BME280;69915;54.862;10.730;2023-08-24T05:02:51;101623.94;;;15.39;100.00
80566;BME280;69915;54.862;10.730;2023-08-24T05:05:17;101608.91;;;15.50;100.00
80566;BME280;69915;54.862;10.730;2023-08-24T05:07:42;101638.13;;;15.65;100.00
80566;BME280;69915;54.862;10.730;2023-08-24T05:10:08;101639.88;;;15.74;100.00
80566;BME280;69915;54.862;10.730;2023-08-24T05:12:34;101643.00;;;15.82;100.00
80566;BME280;69915;54.862;10.730;2023-08-24T05:15:04;101621.56;;;16.06;100.00
80566;BME280;69915;54.862;10.730;2023-08-24T05:17:30;101637.66;;;16.40;100.00
80566;BME280;69915;54.862;10.730;2023-08-24T05:19:57;101630.34;;;16.71;100.00
80566;BME280;69915;54.862;10.730;2023-08-24T05:22:23;101610.25;;;16.79;98.58
80566;BME280;69915;54.862;10.730;2023-08-24T05:24:48;101634.19;;;17.06;96.52
80566;BME280;69915;54.862;10.730;2023-08-24T05:27:14;101603.41;;;17.21;96.79
80566;BME280;69915;54.862;10.730;2023-08-24T05:29:41;101618.63;;;17.40;94.63
80566;BME280;69915;54.862;10.730;2023-08-24T05:32:06;101619.91;;;17.65;95.00
80566;BME280;69915;54.862;10.730;2023-08-24T05:34:31;101609.59;;;17.88;95.05
80566;BME280;69915;54.862;10.730;2023-08-24T05:36:57;101596.25;;;17.99;92.91
80566;BME280;69915;54.862;10.730;2023-08-24T05:39:22;101624.66;;;18.38;92.57
80566;BME280;69915;54.862;10.730;2023-08-24T05:41:52;101616.53;;;18.25;90.23
80566;BME280;69915;54.862;10.730;2023-08-24T05:44:18;101607.78;;;18.57;89.57
80566;BME280;69915;54.862;10.730;2023-08-24T05:46:44;101596.69;;;18.66;87.63
80566;BME280;69915;54.862;10.730;2023-08-24T05:49:10;101606.78;;;19.97;83.99
80566;BME280;69915;54.862;10.730;2023-08-24T05:51:36;101626.56;;;19.96;83.04
80566;BME280;69915;54.862;10.730;2023-08-24T05:54:02;101626.63;;;19.41;83.77
80566;BME280;69915;54.862;10.730;2023-08-24T05:56:28;101622.25;;;19.14;85.59
80566;BME280;69915;54.862;10.730;2023-08-24T05:58:54;101609.53;;;19.13;85.50
80566;BME280;69915;54.862;10.730;2023-08-24T06:01:20;101630.03;;;19.38;86.61
80566;BME280;69915;54.862;10.730;2023-08-24T06:03:45;101590.41;;;19.29;87.23
80566;BME280;69915;54.862;10.730;2023-08-24T06:06:11;101615.56;;;19.15;85.32
80566;BME280;69915;54.862;10.730;2023-08-24T06:08:36;101597.28;;;19.23;87.02
80566;BME280;69915;54.862;10.730;2023-08-24T06:11:02;101623.19;;;19.44;86.38
80566;BME280;69915;54.862;10.730;2023-08-24T06:13:27;101621.28;;;18.93;86.02
80566;BME280;69915;54.862;10.730;2023-08-24T06:15:53;101602.22;;;18.91;87.54
80566;BME280;69915;54.862;10.730;2023-08-24T06:18:22;101626.78;;;19.44;86.39
80566;BME280;69915;54.862;10.730;2023-08-24T06:20:47;101628.91;;;19.47;84.75
80566;BME280;69915;54.862;10.730;2023-08-24T06:23:16;101610.50;;;19.26;84.46
80566;BME280;69915;54.862;10.730;2023-08-24T06:25:42;101625.50;;;19.80;84.26
80566;BME280;69915;54.862;10.730;2023-08-24T06:28:07;101617.88;;;19.97;81.55
80566;BME280;69915;54.862;10.730;2023-08-24T06:30:40;101592.03;;;19.47;81.83
80566;BME280;69915;54.862;10.730;2023-08-24T06:33:06;101592.34;;;19.37;81.94
80566;BME280;69915;54.862;10.730;2023-08-24T06:35:35;101606.91;;;19.25;84.01
80566;BME280;69915;54.862;10.730;2023-08-24T06:38:01;101614.47;;;19.63;83.32
80566;BME280;69915;54.862;10.730;2023-08-24T06:40:27;101603.13;;;19.30;82.38
80566;BME280;69915;54.862;10.730;2023-08-24T06:42:53;101602.53;;;19.71;83.06
80566;BME280;69915;54.862;10.730;2023-08-24T06:45:19;101605.16;;;19.67;82.86
80566;BME280;69915;54.862;10.730;2023-08-24T06:47:44;101616.47;;;19.45;81.35
80566;BME280;69915;54.862;10.730;2023-08-24T06:50:10;101607.84;;;19.38;80.17
80566;BME280;69915;54.862;10.730;2023-08-24T06:52:36;101608.25;;;19.11;80.69
80566;BME280;69915;54.862;10.730;2023-08-24T06:55:02;101590.53;;;18.77;81.22
80566;BME280;69915;54.862;10.730;2023-08-24T06:57:28;101593.91;;;18.48;83.17
80566;BME280;69915;54.862;10.730;2023-08-24T06:59:54;101615.53;;;18.29;85.16
80566;BME280;69915;54.862;10.730;2023-08-24T07:02:19;101628.59;;;18.46;85.73
80566;BME280;69915;54.862;10.730;2023-08-24T07:04:44;101618.19;;;18.94;84.00
80566;BME280;69915;54.862;10.730;2023-08-24T07:07:10;101605.25;;;19.24;82.42
80566;BME280;69915;54.862;10.730;2023-08-24T07:09:36;101591.34;;;19.50;81.41
80566;BME280;69915;54.862;10.730;2023-08-24T07:12:02;101618.75;;;19.89;80.38
80566;BME280;69915;54.862;10.730;2023-08-24T07:14:28;101609.34;;;20.11;78.47
80566;BME280;69915;54.862;10.730;2023-08-24T07:16:54;101613.94;;;20.36;76.68
80566;BME280;69915;54.862;10.730;2023-08-24T07:19:19;101583.53;;;20.10;77.37
80566;BME280;69915;54.862;10.730;2023-08-24T07:21:45;101601.09;;;19.65;77.78
80566;BME280;69915;54.862;10.730;2023-08-24T07:24:10;101601.19;;;19.22;78.42
80566;BME280;69915;54.862;10.730;2023-08-24T07:26:36;101606.38;;;19.49;79.16
80566;BME280;69915;54.862;10.730;2023-08-24T07:29:02;101596.03;;;19.58;78.58
80566;BME280;69915;54.862;10.730;2023-08-24T07:31:27;101616.94;;;19.55;78.00
80566;BME280;69915;54.862;10.730;2023-08-24T07:33:53;101611.69;;;18.90;80.26
80566;BME280;69915;54.862;10.730;2023-08-24T07:36:18;101597.84;;;19.63;80.58
80566;BME280;69915;54.862;10.730;2023-08-24T07:38:45;101599.09;;;19.74;77.86
80566;BME280;69915;54.862;10.730;2023-08-24T07:41:11;101619.09;;;19.50;78.20
80566;BME280;69915;54.862;10.730;2023-08-24T07:43:37;101617.50;;;20.37;77.16
80566;BME280;69915;54.862;10.730;2023-08-24T07:46:03;101598.88;;;20.58;75.41
80566;BME280;69915;54.862;10.730;2023-08-24T07:48:28;101591.00;;;21.46;73.40
80566;BME280;69915;54.862;10.730;2023-08-24T07:50:53;101598.44;;;22.79;71.38
80566;BME280;69915;54.862;10.730;2023-08-24T07:53:19;101599.19;;;23.19;67.32
80566;BME280;69915;54.862;10.730;2023-08-24T07:55:45;101580.25;;;24.22;65.11
80566;BME280;69915;54.862;10.730;2023-08-24T07:58:11;101607.22;;;22.93;66.91
80566;BME280;69915;54.862;10.730;2023-08-24T08:00:36;101616.91;;;23.11;67.82
80566;BME280;69915;54.862;10.730;2023-08-24T08:03:02;101618.06;;;23.54;65.06
80566;BME280;69915;54.862;10.730;2023-08-24T08:05:27;101615.22;;;22.67;67.30
80566;BME280;69915;54.862;10.730;2023-08-24T08:07:52;101614.13;;;21.83;69.74
80566;BME280;69915;54.862;10.730;2023-08-24T08:10:18;101618.41;;;20.91;72.94
80566;BME280;69915;54.862;10.730;2023-08-24T08:12:45;101628.19;;;20.76;74.34
80566;BME280;69915;54.862;10.730;2023-08-24T08:15:11;101609.41;;;20.23;74.93
80566;BME280;69915;54.862;10.730;2023-08-24T08:17:36;101630.09;;;20.05;76.35
80566;BME280;69915;54.862;10.730;2023-08-24T08:20:02;101615.41;;;20.04;76.70
80566;BME280;69915;54.862;10.730;2023-08-24T08:22:28;101622.16;;;19.95;76.63
80566;BME280;69915;54.862;10.730;2023-08-24T08:24:54;101599.69;;;20.58;74.61
80566;BME280;69915;54.862;10.730;2023-08-24T08:27:21;101618.22;;;20.54;73.58
80566;BME280;69915;54.862;10.730;2023-08-24T08:29:46;101615.56;;;20.37;74.62
80566;BME280;69915;54.862;10.730;2023-08-24T08:32:12;101613.19;;;23.07;67.98
80566;BME280;69915;54.862;10.730;2023-08-24T08:34:38;101588.66;;;22.45;67.12
80566;BME280;69915;54.862;10.730;2023-08-24T08:37:03;101606.13;;;22.70;67.75
80566;BME280;69915;54.862;10.730;2023-08-24T08:39:29;101608.41;;;22.40;69.19
80566;BME280;69915;54.862;10.730;2023-08-24T08:41:55;101607.13;;;25.00;61.33
80566;BME280;69915;54.862;10.730;2023-08-24T08:44:21;101595.72;;;24.70;60.07
80566;BME280;69915;54.862;10.730;2023-08-24T08:46:49;101596.97;;;23.41;63.14
80566;BME280;69915;54.862;10.730;2023-08-24T08:49:16;101599.97;;;22.76;64.80
80566;BME280;69915;54.862;10.730;2023-08-24T08:51:43;101577.56;;;21.73;68.62
80566;BME280;69915;54.862;10.730;2023-08-24T08:54:08;101607.00;;;22.46;67.80
80566;BME280;69915;54.862;10.730;2023-08-24T08:56:34;101608.56;;;22.19;67.97
80566;BME280;69915;54.862;10.730;2023-08-24T08:59:01;101589.84;;;22.84;66.06
80566;BME280;69915;54.862;10.730;2023-08-24T09:01:27;101591.44;;;22.85;65.25
80566;BME280;69915;54.862;10.730;2023-08-24T09:03:53;101606.84;;;22.67;67.93
80566;BME280;69915;54.862;10.730;2023-08-24T09:06:20;101594.84;;;22.27;67.53
80566;BME280;69915;54.862;10.730;2023-08-24T09:08:47;101608.91;;;22.06;68.33
80566;BME280;69915;54.862;10.730;2023-08-24T09:11:15;101605.69;;;22.04;71.00
80566;BME280;69915;54.862;10.730;2023-08-24T09:13:42;101596.69;;;21.62;70.09
80566;BME280;69915;54.862;10.730;2023-08-24T09:16:08;101595.31;;;21.11;70.05
80566;BME280;69915;54.862;10.730;2023-08-24T09:18:38;101597.97;;;21.40;71.34
80566;BME280;69915;54.862;10.730;2023-08-24T09:21:11;101590.53;;;21.44;70.60
80566;BME280;69915;54.862;10.730;2023-08-24T09:23:38;101569.75;;;21.17;69.76
80566;BME280;69915;54.862;10.730;2023-08-24T09:26:08;101591.09;;;20.72;70.47
80566;BME280;69915;54.862;10.730;2023-08-24T09:28:33;101579.53;;;20.70;72.78
80566;BME280;69915;54.862;10.730;2023-08-24T09:31:00;101560.44;;;21.13;70.43
80566;BME280;69915;54.862;10.730;2023-08-24T09:33:26;101572.13;;;21.76;69.13
80566;BME280;69915;54.862;10.730;2023-08-24T09:35:54;101553.56;;;21.80;67.65
80566;BME280;69915;54.862;10.730;2023-08-24T09:38:27;101547.53;;;21.78;68.36
80566;BME280;69915;54.862;10.730;2023-08-24T09:40:55;101559.59;;;21.70;68.26
80566;BME280;69915;54.862;10.730;2023-08-24T09:43:21;101572.09;;;21.28;67.86
80566;BME280;69915;54.862;10.730;2023-08-24T09:45:51;101582.81;;;20.84;69.06
80566;BME280;69915;54.862;10.730;2023-08-24T09:48:17;101578.34;;;20.71;70.69
80566;BME280;69915;54.862;10.730;2023-08-24T09:50:44;101557.91;;;21.08;71.71
80566;BME280;69915;54.862;10.730;2023-08-24T09:53:17;101569.34;;;21.76;68.34
80566;BME280;69915;54.862;10.730;2023-08-24T09:55:59;101540.34;;;21.65;67.00
80566;BME280;69915;54.862;10.730;2023-08-24T09:58:25;101567.69;;;22.11;67.98
80566;BME280;69915;54.862;10.730;2023-08-24T10:00:52;101549.16;;;21.43;67.65
80566;BME280;69915;54.862;10.730;2023-08-24T10:03:27;101544.03;;;21.81;66.86
80566;BME280;69915;54.862;10.730;2023-08-24T10:05:57;101568.56;;;22.40;64.89
80566;BME280;69915;54.862;10.730;2023-08-24T10:08:47;101559.47;;;22.67;63.51
80566;BME280;69915;54.862;10.730;2023-08-24T10:11:23;101559.81;;;22.65;63.45
80566;BME280;69915;54.862;10.730;2023-08-24T10:14:03;101549.66;;;23.01;64.43
80566;BME280;69915;54.862;10.730;2023-08-24T10:16:33;101567.41;;;23.08;61.12
80566;BME280;69915;54.862;10.730;2023-08-24T10:19:02;101562.22;;;22.27;62.32
80566;BME280;69915;54.862;10.730;2023-08-24T10:21:28;101571.25;;;22.76;63.79
80566;BME280;69915;54.862;10.730;2023-08-24T10:23:58;101566.72;;;22.84;61.76
80566;BME280;69915;54.862;10.730;2023-08-24T10:26:26;101559.91;;;23.12;62.78
80566;BME280;69915;54.862;10.730;2023-08-24T10:28:52;101563.91;;;23.11;60.96
80566;BME280;69915;54.862;10.730;2023-08-24T10:31:18;101554.47;;;23.31;61.69
80566;BME280;69915;54.862;10.730;2023-08-24T10:33:46;101550.28;;;23.10;63.53
80566;BME280;69915;54.862;10.730;2023-08-24T10:36:15;101559.25;;;23.78;62.13
80566;BME280;69915;54.862;10.730;2023-08-24T10:38:42;101552.75;;;23.74;62.90
80566;BME280;69915;54.862;10.730;2023-08-24T10:41:08;101551.06;;;23.54;63.00
80566;BME280;69915;54.862;10.730;2023-08-24T10:43:37;101559.44;;;23.54;65.04
80566;BME280;69915;54.862;10.730;2023-08-24T10:46:03;101541.97;;;23.72;63.32
80566;BME280;69915;54.862;10.730;2023-08-24T10:48:32;101544.13;;;23.79;58.03
80566;BME280;69915;54.862;10.730;2023-08-24T10:51:21;101555.50;;;24.05;59.94
80566;BME280;69915;54.862;10.730;2023-08-24T10:53:52;101559.31;;;24.32;59.53
80566;BME280;69915;54.862;10.730;2023-08-24T10:56:18;101581.31;;;23.52;60.80
80566;BME280;69915;54.862;10.730;2023-08-24T10:58:45;101580.72;;;23.30;59.72
80566;BME280;69915;54.862;10.730;2023-08-24T11:01:16;101557.38;;;23.66;61.92
80566;BME280;69915;54.862;10.730;2023-08-24T11:03:49;101570.25;;;23.55;60.83
80566;BME280;69915;54.862;10.730;2023-08-24T11:06:21;101549.00;;;23.66;61.58
80566;BME280;69915;54.862;10.730;2023-08-24T11:08:49;101558.97;;;23.83;61.90
80566;BME280;69915;54.862;10.730;2023-08-24T11:11:21;101574.97;;;23.23;62.11
80566;BME280;69915;54.862;10.730;2023-08-24T11:14:14;101574.75;;;23.01;60.81
80566;BME280;69915;54.862;10.730;2023-08-24T11:16:48;101565.25;;;22.62;61.76
80566;BME280;69915;54.862;10.730;2023-08-24T11:19:15;101541.19;;;22.69;62.50
80566;BME280;69915;54.862;10.730;2023-08-24T11:21:45;101564.81;;;22.48;62.91
80566;BME280;69915;54.862;10.730;2023-08-24T11:24:15;101564.78;;;22.32;63.66
80566;BME280;69915;54.862;10.730;2023-08-24T11:26:47;101540.50;;;22.60;64.88
80566;BME280;69915;54.862;10.730;2023-08-24T11:29:13;101524.00;;;22.95;64.32
80566;BME280;69915;54.862;10.730;2023-08-24T11:31:39;101520.34;;;23.22;62.46
80566;BME280;69915;54.862;10.730;2023-08-24T11:34:05;101512.81;;;22.80;63.03
80566;BME280;69915;54.862;10.730;2023-08-24T11:36:43;101524.41;;;22.82;61.93
80566;BME280;69915;54.862;10.730;2023-08-24T11:39:19;101527.50;;;22.92;61.54
80566;BME280;69915;54.862;10.730;2023-08-24T11:44:27;101530.41;;;22.96;61.48
80566;BME280;69915;54.862;10.730;2023-08-24T11:46:52;101513.69;;;23.11;59.91
80566;BME280;69915;54.862;10.730;2023-08-24T11:49:18;101515.91;;;23.21;58.53
80566;BME280;69915;54.862;10.730;2023-08-24T11:51:44;101503.28;;;22.53;61.30
80566;BME280;69915;54.862;10.730;2023-08-24T11:54:09;101475.03;;;22.82;59.93
80566;BME280;69915;54.862;10.730;2023-08-24T11:56:42;101450.50;;;22.88;58.84
80566;BME280;69915;54.862;10.730;2023-08-24T11:59:14;101450.75;;;22.83;60.97
80566;BME280;69915;54.862;10.730;2023-08-24T12:01:41;101444.94;;;22.60;57.79
80566;BME280;69915;54.862;10.730;2023-08-24T12:04:07;101458.44;;;23.33;59.68
80566;BME280;69915;54.862;10.730;2023-08-24T12:06:33;101453.72;;;23.37;57.40
80566;BME280;69915;54.862;10.730;2023-08-24T12:08:58;101457.97;;;23.15;59.23
80566;BME280;69915;54.862;10.730;2023-08-24T12:11:24;101446.00;;;22.83;58.69
80566;BME280;69915;54.862;10.730;2023-08-24T12:13:53;101459.34;;;22.62;60.55
80566;BME280;69915;54.862;10.730;2023-08-24T12:16:19;101438.13;;;22.30;60.29
80566;BME280;69915;54.862;10.730;2023-08-24T12:18:55;101426.91;;;21.86;62.43
80566;BME280;69915;54.862;10.730;2023-08-24T12:21:23;101453.81;;;21.82;63.20
80566;BME280;69915;54.862;10.730;2023-08-24T12:23:59;101433.03;;;22.04;62.78
80566;BME280;69915;54.862;10.730;2023-08-24T12:26:26;101437.81;;;22.74;61.52
80566;BME280;69915;54.862;10.730;2023-08-24T12:28:52;101449.63;;;22.56;60.69
80566;BME280;69915;54.862;10.730;2023-08-24T12:31:19;101449.00;;;22.62;62.45
80566;BME280;69915;54.862;10.730;2023-08-24T12:33:45;101445.47;;;22.50;61.26
80566;BME280;69915;54.862;10.730;2023-08-24T12:36:11;101404.88;;;21.69;61.61
80566;BME280;69915;54.862;10.730;2023-08-24T12:38:37;101394.31;;;22.14;63.64
80566;BME280;69915;54.862;10.730;2023-08-24T12:41:03;101402.84;;;22.06;63.78